sensor_id;sensor_type;location;lat;lon;timestamp;temperature;humidity
5808;DHT22;2930;42.678;23.312;2023-04-12T00:01:06;8.70;86.30
5808;DHT22;2930;42.678;23.312;2023-04-12T00:03:32;8.70;86.30
5808;DHT22;2930;42.678;23.312;2023-04-12T00:05:59;8.70;86.40
5808;DHT22;2930;42.678;23.312;2023-04-12T00:08:30;8.70;86.60
5808;DHT22;2930;42.678;23.312;2023-04-12T00:10:59;8.70;86.60
5808;DHT22;2930;42.678;23.312;2023-04-12T00:13:25;8.70;86.60
5808;DHT22;2930;42.678;23.312;2023-04-12T00:15:51;8.60;86.80
5808;DHT22;2930;42.678;23.312;2023-04-12T00:18:16;8.60;86.90
5808;DHT22;2930;42.678;23.312;2023-04-12T00:20:42;8.60;86.90
5808;DHT22;2930;42.678;23.312;2023-04-12T00:23:08;8.60;86.90
5808;DHT22;2930;42.678;23.312;2023-04-12T00:25:38;8.60;86.80
5808;DHT22;2930;42.678;23.312;2023-04-12T00:28:04;8.60;86.90
5808;DHT22;2930;42.678;23.312;2023-04-12T00:30:30;8.60;86.80
5808;DHT22;2930;42.678;23.312;2023-04-12T00:32:57;8.60;86.80
5808;DHT22;2930;42.678;23.312;2023-04-12T00:35:22;8.60;86.70
5808;DHT22;2930;42.678;23.312;2023-04-12T00:37:49;8.60;86.80
5808;DHT22;2930;42.678;23.312;2023-04-12T00:40:15;8.70;86.50
5808;DHT22;2930;42.678;23.312;2023-04-12T00:42:40;8.70;86.30
5808;DHT22;2930;42.678;23.312;2023-04-12T00:45:06;8.60;86.40
5808;DHT22;2930;42.678;23.312;2023-04-12T00:47:36;8.70;86.30
5808;DHT22;2930;42.678;23.312;2023-04-12T00:50:03;8.70;86.20
5808;DHT22;2930;42.678;23.312;2023-04-12T00:52:31;8.70;86.20
5808;DHT22;2930;42.678;23.312;2023-04-12T00:55:00;8.60;86.40
5808;DHT22;2930;42.678;23.312;2023-04-12T00:57:26;8.60;86.40
5808;DHT22;2930;42.678;23.312;2023-04-12T00:59:51;8.60;86.40
5808;DHT22;2930;42.678;23.312;2023-04-12T01:02:17;8.70;86.50
5808;DHT22;2930;42.678;23.312;2023-04-12T01:04:44;8.70;86.20
5808;DHT22;2930;42.678;23.312;2023-04-12T01:07:29;8.70;86.10
5808;DHT22;2930;42.678;23.312;2023-04-12T01:15:38;8.80;86.00
5808;DHT22;2930;42.678;23.312;2023-04-12T01:18:12;8.70;86.00
5808;DHT22;2930;42.678;23.312;2023-04-12T01:21:09;8.70;86.00
5808;DHT22;2930;42.678;23.312;2023-04-12T01:28:57;8.70;86.00
5808;DHT22;2930;42.678;23.312;2023-04-12T01:31:26;8.70;86.00
5808;DHT22;2930;42.678;23.312;2023-04-12T01:33:53;8.70;85.90
5808;DHT22;2930;42.678;23.312;2023-04-12T01:36:22;8.70;86.10
5808;DHT22;2930;42.678;23.312;2023-04-12T01:38:51;8.60;86.50
5808;DHT22;2930;42.678;23.312;2023-04-12T01:41:17;8.60;86.60
5808;DHT22;2930;42.678;23.312;2023-04-12T01:43:44;8.60;86.60
5808;DHT22;2930;42.678;23.312;2023-04-12T01:46:14;8.60;86.70
5808;DHT22;2930;42.678;23.312;2023-04-12T01:48:47;8.60;86.70
5808;DHT22;2930;42.678;23.312;2023-04-12T01:51:33;8.50;86.90
5808;DHT22;2930;42.678;23.312;2023-04-12T01:54:08;8.50;87.00
5808;DHT22;2930;42.678;23.312;2023-04-12T01:56:39;8.50;87.10
5808;DHT22;2930;42.678;23.312;2023-04-12T01:59:06;8.40;87.10
5808;DHT22;2930;42.678;23.312;2023-04-12T02:01:33;8.40;87.10
5808;DHT22;2930;42.678;23.312;2023-04-12T02:04:00;8.50;87.10
5808;DHT22;2930;42.678;23.312;2023-04-12T02:06:27;8.40;87.20
5808;DHT22;2930;42.678;23.312;2023-04-12T02:08:57;8.40;87.40
5808;DHT22;2930;42.678;23.312;2023-04-12T02:11:24;8.30;87.40
5808;DHT22;2930;42.678;23.312;2023-04-12T02:13:49;8.30;87.40
5808;DHT22;2930;42.678;23.312;2023-04-12T02:16:15;8.20;87.60
5808;DHT22;2930;42.678;23.312;2023-04-12T02:18:41;8.20;87.60
5808;DHT22;2930;42.678;23.312;2023-04-12T02:21:07;8.20;87.80
5808;DHT22;2930;42.678;23.312;2023-04-12T02:23:33;8.20;87.80
5808;DHT22;2930;42.678;23.312;2023-04-12T02:25:58;8.20;87.80
5808;DHT22;2930;42.678;23.312;2023-04-12T02:28:24;8.20;87.90
5808;DHT22;2930;42.678;23.312;2023-04-12T02:30:49;8.20;88.10
5808;DHT22;2930;42.678;23.312;2023-04-12T02:33:18;8.20;88.00
5808;DHT22;2930;42.678;23.312;2023-04-12T02:35:46;8.20;88.00
5808;DHT22;2930;42.678;23.312;2023-04-12T02:38:12;8.20;87.90
5808;DHT22;2930;42.678;23.312;2023-04-12T02:40:38;8.20;87.90
5808;DHT22;2930;42.678;23.312;2023-04-12T02:43:07;8.20;87.90
5808;DHT22;2930;42.678;23.312;2023-04-12T02:45:33;8.20;87.80
5808;DHT22;2930;42.678;23.312;2023-04-12T02:47:59;8.20;87.90
5808;DHT22;2930;42.678;23.312;2023-04-12T02:50:24;8.20;87.70
5808;DHT22;2930;42.678;23.312;2023-04-12T02:52:50;8.20;87.80
5808;DHT22;2930;42.678;23.312;2023-04-12T02:55:16;8.30;87.60
5808;DHT22;2930;42.678;23.312;2023-04-12T02:57:43;8.40;87.40
5808;DHT22;2930;42.678;23.312;2023-04-12T03:00:10;8.40;87.20
5808;DHT22;2930;42.678;23.312;2023-04-12T03:02:37;8.40;87.30
5808;DHT22;2930;42.678;23.312;2023-04-12T03:05:03;8.40;87.30
5808;DHT22;2930;42.678;23.312;2023-04-12T03:07:29;8.40;87.30
5808;DHT22;2930;42.678;23.312;2023-04-12T03:09:55;8.40;87.60
5808;DHT22;2930;42.678;23.312;2023-04-12T03:12:21;8.40;87.90
5808;DHT22;2930;42.678;23.312;2023-04-12T03:14:47;8.40;88.30
5808;DHT22;2930;42.678;23.312;2023-04-12T03:17:12;8.50;88.40
5808;DHT22;2930;42.678;23.312;2023-04-12T03:19:38;8.60;88.30
5808;DHT22;2930;42.678;23.312;2023-04-12T03:22:04;8.60;88.30
5808;DHT22;2930;42.678;23.312;2023-04-12T03:24:31;8.60;88.50
5808;DHT22;2930;42.678;23.312;2023-04-12T03:27:03;8.60;88.60
5808;DHT22;2930;42.678;23.312;2023-04-12T03:29:31;8.60;88.70
5808;DHT22;2930;42.678;23.312;2023-04-12T03:31:57;8.60;88.90
5808;DHT22;2930;42.678;23.312;2023-04-12T03:34:24;8.60;89.00
5808;DHT22;2930;42.678;23.312;2023-04-12T03:36:53;8.70;89.10
5808;DHT22;2930;42.678;23.312;2023-04-12T03:39:20;8.70;89.10
5808;DHT22;2930;42.678;23.312;2023-04-12T03:41:46;8.70;89.00
5808;DHT22;2930;42.678;23.312;2023-04-12T03:44:12;8.80;88.90
5808;DHT22;2930;42.678;23.312;2023-04-12T03:46:38;8.80;88.70
5808;DHT22;2930;42.678;23.312;2023-04-12T03:49:04;8.80;88.20
5808;DHT22;2930;42.678;23.312;2023-04-12T03:51:30;8.80;87.90
5808;DHT22;2930;42.678;23.312;2023-04-12T03:53:57;8.80;87.60
5808;DHT22;2930;42.678;23.312;2023-04-12T03:56:22;8.80;87.40
5808;DHT22;2930;42.678;23.312;2023-04-12T03:58:48;8.80;87.50
5808;DHT22;2930;42.678;23.312;2023-04-12T04:01:14;8.80;87.50
5808;DHT22;2930;42.678;23.312;2023-04-12T04:03:43;8.80;87.50
5808;DHT22;2930;42.678;23.312;2023-04-12T04:06:10;8.80;87.70
5808;DHT22;2930;42.678;23.312;2023-04-12T04:08:36;8.80;87.80
5808;DHT22;2930;42.678;23.312;2023-04-12T04:11:02;8.80;87.80
5808;DHT22;2930;42.678;23.312;2023-04-12T04:13:28;8.80;87.60
5808;DHT22;2930;42.678;23.312;2023-04-12T04:16:02;8.80;87.60
5808;DHT22;2930;42.678;23.312;2023-04-12T04:18:29;8.80;87.50
5808;DHT22;2930;42.678;23.312;2023-04-12T04:20:55;8.80;87.50
5808;DHT22;2930;42.678;23.312;2023-04-12T04:23:21;8.80;87.50
5808;DHT22;2930;42.678;23.312;2023-04-12T04:25:48;8.80;87.40
5808;DHT22;2930;42.678;23.312;2023-04-12T04:28:13;8.80;87.50
5808;DHT22;2930;42.678;23.312;2023-04-12T04:30:42;8.80;87.60
5808;DHT22;2930;42.678;23.312;2023-04-12T04:33:13;8.80;87.70
5808;DHT22;2930;42.678;23.312;2023-04-12T04:35:40;8.70;87.60
5808;DHT22;2930;42.678;23.312;2023-04-12T04:38:08;8.70;87.80
5808;DHT22;2930;42.678;23.312;2023-04-12T04:40:36;8.70;87.80
5808;DHT22;2930;42.678;23.312;2023-04-12T04:43:03;8.70;87.80
5808;DHT22;2930;42.678;23.312;2023-04-12T04:45:29;8.70;87.50
5808;DHT22;2930;42.678;23.312;2023-04-12T04:47:56;8.70;87.50
5808;DHT22;2930;42.678;23.312;2023-04-12T04:50:23;8.70;87.60
5808;DHT22;2930;42.678;23.312;2023-04-12T04:52:51;8.70;87.60
5808;DHT22;2930;42.678;23.312;2023-04-12T04:55:17;8.70;87.40
5808;DHT22;2930;42.678;23.312;2023-04-12T04:57:43;8.70;87.50
5808;DHT22;2930;42.678;23.312;2023-04-12T05:00:09;8.70;87.40
5808;DHT22;2930;42.678;23.312;2023-04-12T05:02:40;8.70;87.30
5808;DHT22;2930;42.678;23.312;2023-04-12T05:05:11;8.70;87.10
5808;DHT22;2930;42.678;23.312;2023-04-12T05:07:40;8.70;86.90
5808;DHT22;2930;42.678;23.312;2023-04-12T05:10:08;8.70;86.50
5808;DHT22;2930;42.678;23.312;2023-04-12T05:12:36;8.70;86.40
5808;DHT22;2930;42.678;23.312;2023-04-12T05:15:02;8.70;86.20
5808;DHT22;2930;42.678;23.312;2023-04-12T05:17:28;8.70;85.90
5808;DHT22;2930;42.678;23.312;2023-04-12T05:19:54;8.70;85.40
5808;DHT22;2930;42.678;23.312;2023-04-12T05:22:20;8.70;85.00
5808;DHT22;2930;42.678;23.312;2023-04-12T05:24:47;8.80;84.90
5808;DHT22;2930;42.678;23.312;2023-04-12T05:27:13;8.80;84.30
5808;DHT22;2930;42.678;23.312;2023-04-12T05:29:43;8.80;84.10
5808;DHT22;2930;42.678;23.312;2023-04-12T05:32:10;8.80;83.60
5808;DHT22;2930;42.678;23.312;2023-04-12T05:34:35;8.80;83.20
5808;DHT22;2930;42.678;23.312;2023-04-12T05:37:02;8.90;83.10
5808;DHT22;2930;42.678;23.312;2023-04-12T05:39:28;8.90;82.70
5808;DHT22;2930;42.678;23.312;2023-04-12T05:41:54;9.00;82.20
5808;DHT22;2930;42.678;23.312;2023-04-12T05:44:20;8.90;82.10
5808;DHT22;2930;42.678;23.312;2023-04-12T05:46:46;9.00;81.90
5808;DHT22;2930;42.678;23.312;2023-04-12T05:49:11;9.00;81.70
5808;DHT22;2930;42.678;23.312;2023-04-12T05:51:37;9.00;81.20
5808;DHT22;2930;42.678;23.312;2023-04-12T05:54:03;9.00;80.60
5808;DHT22;2930;42.678;23.312;2023-04-12T05:56:31;9.00;80.40
5808;DHT22;2930;42.678;23.312;2023-04-12T05:58:58;9.00;80.10
5808;DHT22;2930;42.678;23.312;2023-04-12T06:01:26;9.00;80.10
5808;DHT22;2930;42.678;23.312;2023-04-12T06:03:58;9.00;79.80
5808;DHT22;2930;42.678;23.312;2023-04-12T06:06:24;9.10;79.80
5808;DHT22;2930;42.678;23.312;2023-04-12T06:08:57;8.90;79.60
5808;DHT22;2930;42.678;23.312;2023-04-12T06:11:25;8.90;79.80
5808;DHT22;2930;42.678;23.312;2023-04-12T06:13:51;8.80;80.20
5808;DHT22;2930;42.678;23.312;2023-04-12T06:16:16;8.80;80.50
5808;DHT22;2930;42.678;23.312;2023-04-12T06:18:42;8.70;80.90
5808;DHT22;2930;42.678;23.312;2023-04-12T06:21:08;8.70;81.30
5808;DHT22;2930;42.678;23.312;2023-04-12T06:23:34;8.70;81.60
5808;DHT22;2930;42.678;23.312;2023-04-12T06:25:59;8.60;81.60
5808;DHT22;2930;42.678;23.312;2023-04-12T06:28:25;8.60;81.90
5808;DHT22;2930;42.678;23.312;2023-04-12T06:30:50;8.70;81.80
5808;DHT22;2930;42.678;23.312;2023-04-12T06:33:16;8.70;81.60
5808;DHT22;2930;42.678;23.312;2023-04-12T06:35:42;8.70;81.40
5808;DHT22;2930;42.678;23.312;2023-04-12T06:38:07;8.80;81.00
5808;DHT22;2930;42.678;23.312;2023-04-12T06:40:33;8.90;80.80
5808;DHT22;2930;42.678;23.312;2023-04-12T06:42:59;9.00;80.00
5808;DHT22;2930;42.678;23.312;2023-04-12T06:45:24;9.00;79.70
5808;DHT22;2930;42.678;23.312;2023-04-12T06:47:50;9.10;79.90
5808;DHT22;2930;42.678;23.312;2023-04-12T06:50:16;9.20;79.60
5808;DHT22;2930;42.678;23.312;2023-04-12T06:52:42;9.20;79.60
5808;DHT22;2930;42.678;23.312;2023-04-12T06:55:08;9.20;79.30
5808;DHT22;2930;42.678;23.312;2023-04-12T06:57:34;9.10;79.30
5808;DHT22;2930;42.678;23.312;2023-04-12T07:00:01;9.10;79.90
5808;DHT22;2930;42.678;23.312;2023-04-12T07:02:26;9.10;80.00
5808;DHT22;2930;42.678;23.312;2023-04-12T07:04:53;9.20;79.90
5808;DHT22;2930;42.678;23.312;2023-04-12T07:07:19;9.40;79.50
5808;DHT22;2930;42.678;23.312;2023-04-12T07:09:47;9.50;79.20
5808;DHT22;2930;42.678;23.312;2023-04-12T07:12:13;9.60;78.80
5808;DHT22;2930;42.678;23.312;2023-04-12T07:14:38;9.70;78.70
5808;DHT22;2930;42.678;23.312;2023-04-12T07:17:04;9.90;78.30
5808;DHT22;2930;42.678;23.312;2023-04-12T07:19:30;10.00;77.50
5808;DHT22;2930;42.678;23.312;2023-04-12T07:21:56;10.20;77.10
5808;DHT22;2930;42.678;23.312;2023-04-12T07:24:22;10.30;76.60
5808;DHT22;2930;42.678;23.312;2023-04-12T07:26:48;10.40;76.20
5808;DHT22;2930;42.678;23.312;2023-04-12T07:29:14;10.30;76.00
5808;DHT22;2930;42.678;23.312;2023-04-12T07:31:41;10.10;75.60
5808;DHT22;2930;42.678;23.312;2023-04-12T07:34:07;10.00;75.90
5808;DHT22;2930;42.678;23.312;2023-04-12T07:36:32;9.90;76.70
5808;DHT22;2930;42.678;23.312;2023-04-12T07:38:58;9.90;76.90
5808;DHT22;2930;42.678;23.312;2023-04-12T07:41:23;10.00;76.50
5808;DHT22;2930;42.678;23.312;2023-04-12T07:43:49;9.80;76.30
5808;DHT22;2930;42.678;23.312;2023-04-12T07:46:15;9.80;76.60
5808;DHT22;2930;42.678;23.312;2023-04-12T07:48:42;10.00;76.00
5808;DHT22;2930;42.678;23.312;2023-04-12T07:51:08;10.00;76.30
5808;DHT22;2930;42.678;23.312;2023-04-12T07:53:33;10.20;75.30
5808;DHT22;2930;42.678;23.312;2023-04-12T07:55:59;10.30;74.40
5808;DHT22;2930;42.678;23.312;2023-04-12T07:58:25;10.30;73.60
5808;DHT22;2930;42.678;23.312;2023-04-12T08:00:52;10.40;72.10
5808;DHT22;2930;42.678;23.312;2023-04-12T08:03:18;10.50;71.40
5808;DHT22;2930;42.678;23.312;2023-04-12T08:05:44;10.70;70.90
5808;DHT22;2930;42.678;23.312;2023-04-12T08:08:10;10.60;70.80
5808;DHT22;2930;42.678;23.312;2023-04-12T08:10:39;10.70;71.00
5808;DHT22;2930;42.678;23.312;2023-04-12T08:13:05;10.70;70.80
5808;DHT22;2930;42.678;23.312;2023-04-12T08:15:31;10.60;70.00
5808;DHT22;2930;42.678;23.312;2023-04-12T08:17:56;10.60;68.70
5808;DHT22;2930;42.678;23.312;2023-04-12T08:20:23;10.60;68.90
5808;DHT22;2930;42.678;23.312;2023-04-12T08:22:49;10.60;68.80
5808;DHT22;2930;42.678;23.312;2023-04-12T08:25:16;10.60;69.00
5808;DHT22;2930;42.678;23.312;2023-04-12T08:27:42;10.70;68.80
5808;DHT22;2930;42.678;23.312;2023-04-12T08:30:09;10.80;68.60
5808;DHT22;2930;42.678;23.312;2023-04-12T08:32:35;10.90;67.00
5808;DHT22;2930;42.678;23.312;2023-04-12T08:35:02;11.20;67.20
5808;DHT22;2930;42.678;23.312;2023-04-12T08:37:28;11.30;66.50
5808;DHT22;2930;42.678;23.312;2023-04-12T08:39:53;11.40;66.20
5808;DHT22;2930;42.678;23.312;2023-04-12T08:42:20;11.60;65.60
5808;DHT22;2930;42.678;23.312;2023-04-12T08:44:46;11.90;64.30
5808;DHT22;2930;42.678;23.312;2023-04-12T08:47:12;12.10;64.10
5808;DHT22;2930;42.678;23.312;2023-04-12T08:49:38;12.10;63.50
5808;DHT22;2930;42.678;23.312;2023-04-12T08:52:06;12.00;63.50
5808;DHT22;2930;42.678;23.312;2023-04-12T08:54:33;12.30;64.00
5808;DHT22;2930;42.678;23.312;2023-04-12T08:57:00;12.70;62.60
5808;DHT22;2930;42.678;23.312;2023-04-12T08:59:27;12.90;62.40
5808;DHT22;2930;42.678;23.312;2023-04-12T09:01:54;13.30;61.40
5808;DHT22;2930;42.678;23.312;2023-04-12T09:04:20;13.60;60.90
5808;DHT22;2930;42.678;23.312;2023-04-12T09:06:45;13.90;60.30
5808;DHT22;2930;42.678;23.312;2023-04-12T09:09:11;14.00;60.20
5808;DHT22;2930;42.678;23.312;2023-04-12T09:11:37;14.20;60.00
5808;DHT22;2930;42.678;23.312;2023-04-12T09:14:03;14.10;59.40
5808;DHT22;2930;42.678;23.312;2023-04-12T09:16:39;13.60;60.50
5808;DHT22;2930;42.678;23.312;2023-04-12T09:19:06;13.40;60.40
5808;DHT22;2930;42.678;23.312;2023-04-12T09:21:33;13.60;61.00
5808;DHT22;2930;42.678;23.312;2023-04-12T09:24:07;13.50;57.40
5808;DHT22;2930;42.678;23.312;2023-04-12T09:26:38;13.70;58.10
5808;DHT22;2930;42.678;23.312;2023-04-12T09:29:04;13.90;57.70
5808;DHT22;2930;42.678;23.312;2023-04-12T09:31:30;13.90;57.60
5808;DHT22;2930;42.678;23.312;2023-04-12T09:34:07;13.70;58.10
5808;DHT22;2930;42.678;23.312;2023-04-12T09:36:38;13.30;58.60
5808;DHT22;2930;42.678;23.312;2023-04-12T09:39:04;13.10;57.60
5808;DHT22;2930;42.678;23.312;2023-04-12T09:41:30;13.40;57.10
5808;DHT22;2930;42.678;23.312;2023-04-12T09:43:58;13.90;56.20
5808;DHT22;2930;42.678;23.312;2023-04-12T09:46:24;13.80;56.70
5808;DHT22;2930;42.678;23.312;2023-04-12T09:48:54;13.80;56.70
5808;DHT22;2930;42.678;23.312;2023-04-12T09:51:28;13.90;56.00
5808;DHT22;2930;42.678;23.312;2023-04-12T09:54:00;14.30;56.50
5808;DHT22;2930;42.678;23.312;2023-04-12T09:56:34;15.00;55.80
5808;DHT22;2930;42.678;23.312;2023-04-12T09:59:02;15.60;55.80
5808;DHT22;2930;42.678;23.312;2023-04-12T10:01:33;15.90;54.00
5808;DHT22;2930;42.678;23.312;2023-04-12T10:04:00;15.40;53.00
5808;DHT22;2930;42.678;23.312;2023-04-12T10:06:26;15.10;52.50
5808;DHT22;2930;42.678;23.312;2023-04-12T10:08:53;15.50;51.40
5808;DHT22;2930;42.678;23.312;2023-04-12T10:11:18;16.10;48.50
5808;DHT22;2930;42.678;23.312;2023-04-12T10:13:47;16.60;47.30
5808;DHT22;2930;42.678;23.312;2023-04-12T10:16:14;17.40;45.70
5808;DHT22;2930;42.678;23.312;2023-04-12T10:18:41;17.70;45.80
5808;DHT22;2930;42.678;23.312;2023-04-12T10:21:08;18.00;45.50
5808;DHT22;2930;42.678;23.312;2023-04-12T10:23:34;18.10;45.70
5808;DHT22;2930;42.678;23.312;2023-04-12T10:26:01;18.90;45.20
5808;DHT22;2930;42.678;23.312;2023-04-12T10:28:28;19.40;44.30
5808;DHT22;2930;42.678;23.312;2023-04-12T10:30:58;19.70;43.40
5808;DHT22;2930;42.678;23.312;2023-04-12T10:33:28;19.20;44.10
5808;DHT22;2930;42.678;23.312;2023-04-12T10:35:59;19.00;44.80
5808;DHT22;2930;42.678;23.312;2023-04-12T10:38:27;19.50;45.00
5808;DHT22;2930;42.678;23.312;2023-04-12T10:41:19;20.00;44.60
5808;DHT22;2930;42.678;23.312;2023-04-12T10:43:49;20.80;43.90
5808;DHT22;2930;42.678;23.312;2023-04-12T10:49:12;22.00;40.80
5808;DHT22;2930;42.678;23.312;2023-04-12T10:51:39;21.30;40.60
5808;DHT22;2930;42.678;23.312;2023-04-12T10:56:41;21.30;40.60
5808;DHT22;2930;42.678;23.312;2023-04-12T10:59:08;21.70;39.90
5808;DHT22;2930;42.678;23.312;2023-04-12T11:01:34;22.10;40.90
5808;DHT22;2930;42.678;23.312;2023-04-12T11:04:08;22.70;41.00
5808;DHT22;2930;42.678;23.312;2023-04-12T11:11:51;22.90;37.30
5808;DHT22;2930;42.678;23.312;2023-04-12T11:14:17;22.20;38.40
5808;DHT22;2930;42.678;23.312;2023-04-12T11:19:37;20.80;40.00
5808;DHT22;2930;42.678;23.312;2023-04-12T11:22:04;20.40;39.90
5808;DHT22;2930;42.678;23.312;2023-04-12T11:24:30;20.60;40.00
5808;DHT22;2930;42.678;23.312;2023-04-12T11:26:57;20.70;40.30
5808;DHT22;2930;42.678;23.312;2023-04-12T11:29:26;20.70;40.70
5808;DHT22;2930;42.678;23.312;2023-04-12T11:31:52;20.80;39.50
5808;DHT22;2930;42.678;23.312;2023-04-12T11:34:20;20.60;39.90
5808;DHT22;2930;42.678;23.312;2023-04-12T11:36:50;19.80;40.20
5808;DHT22;2930;42.678;23.312;2023-04-12T11:39:16;19.60;41.40
5808;DHT22;2930;42.678;23.312;2023-04-12T11:41:46;19.70;40.30
5808;DHT22;2930;42.678;23.312;2023-04-12T11:44:13;19.40;40.50
5808;DHT22;2930;42.678;23.312;2023-04-12T11:46:40;19.90;40.50
5808;DHT22;2930;42.678;23.312;2023-04-12T11:49:05;20.40;41.20
5808;DHT22;2930;42.678;23.312;2023-04-12T11:51:31;20.40;39.60
5808;DHT22;2930;42.678;23.312;2023-04-12T11:53:58;19.70;40.50
5808;DHT22;2930;42.678;23.312;2023-04-12T11:56:24;19.30;40.80
5808;DHT22;2930;42.678;23.312;2023-04-12T11:58:50;19.30;42.00
5808;DHT22;2930;42.678;23.312;2023-04-12T12:01:20;19.90;41.50
5808;DHT22;2930;42.678;23.312;2023-04-12T12:03:47;20.60;40.90
5808;DHT22;2930;42.678;23.312;2023-04-12T12:06:14;21.30;40.80
5808;DHT22;2930;42.678;23.312;2023-04-12T12:08:40;21.90;40.10
5808;DHT22;2930;42.678;23.312;2023-04-12T12:11:06;22.00;39.70
5808;DHT22;2930;42.678;23.312;2023-04-12T12:13:49;21.60;39.90
5808;DHT22;2930;42.678;23.312;2023-04-12T12:16:16;20.90;40.00
5808;DHT22;2930;42.678;23.312;2023-04-12T12:18:44;20.60;40.60
5808;DHT22;2930;42.678;23.312;2023-04-12T12:21:14;20.30;40.70
5808;DHT22;2930;42.678;23.312;2023-04-12T12:23:44;20.00;41.30
5808;DHT22;2930;42.678;23.312;2023-04-12T12:26:21;20.30;41.40
5808;DHT22;2930;42.678;23.312;2023-04-12T12:28:52;20.70;41.30
5808;DHT22;2930;42.678;23.312;2023-04-12T12:31:19;20.90;41.20
5808;DHT22;2930;42.678;23.312;2023-04-12T12:33:46;20.60;40.60
5808;DHT22;2930;42.678;23.312;2023-04-12T12:36:12;20.00;41.40
5808;DHT22;2930;42.678;23.312;2023-04-12T12:38:39;20.40;41.20
5808;DHT22;2930;42.678;23.312;2023-04-12T12:41:21;20.80;41.20
5808;DHT22;2930;42.678;23.312;2023-04-12T12:43:48;20.80;40.80
5808;DHT22;2930;42.678;23.312;2023-04-12T12:46:14;20.60;41.10
5808;DHT22;2930;42.678;23.312;2023-04-12T12:48:40;20.80;41.80
5808;DHT22;2930;42.678;23.312;2023-04-12T12:51:07;20.90;40.90
5808;DHT22;2930;42.678;23.312;2023-04-12T12:53:34;21.00;40.30
5808;DHT22;2930;42.678;23.312;2023-04-12T12:56:01;20.90;40.10
5808;DHT22;2930;42.678;23.312;2023-04-12T12:58:27;20.90;41.40
5808;DHT22;2930;42.678;23.312;2023-04-12T13:00:53;20.70;40.20
5808;DHT22;2930;42.678;23.312;2023-04-12T13:03:20;20.50;40.30
5808;DHT22;2930;42.678;23.312;2023-04-12T13:05:45;20.40;40.60
5808;DHT22;2930;42.678;23.312;2023-04-12T13:08:11;20.60;41.30
5808;DHT22;2930;42.678;23.312;2023-04-12T13:10:37;21.20;40.60
5808;DHT22;2930;42.678;23.312;2023-04-12T13:13:03;21.40;39.90
5808;DHT22;2930;42.678;23.312;2023-04-12T13:15:28;21.10;39.80
5808;DHT22;2930;42.678;23.312;2023-04-12T13:17:54;21.30;40.30
5808;DHT22;2930;42.678;23.312;2023-04-12T13:20:21;21.40;40.00
5808;DHT22;2930;42.678;23.312;2023-04-12T13:22:47;21.00;39.80
5808;DHT22;2930;42.678;23.312;2023-04-12T13:25:13;20.80;41.00
5808;DHT22;2930;42.678;23.312;2023-04-12T13:27:39;20.90;40.70
5808;DHT22;2930;42.678;23.312;2023-04-12T13:30:05;20.80;41.40
5808;DHT22;2930;42.678;23.312;2023-04-12T13:32:31;20.70;41.60
5808;DHT22;2930;42.678;23.312;2023-04-12T13:34:57;20.90;41.60
5808;DHT22;2930;42.678;23.312;2023-04-12T13:37:22;20.70;41.70
5808;DHT22;2930;42.678;23.312;2023-04-12T13:39:50;20.50;41.30
5808;DHT22;2930;42.678;23.312;2023-04-12T13:42:15;20.10;41.90
5808;DHT22;2930;42.678;23.312;2023-04-12T13:44:41;19.80;42.30
5808;DHT22;2930;42.678;23.312;2023-04-12T13:47:07;19.30;42.90
5808;DHT22;2930;42.678;23.312;2023-04-12T13:49:33;19.40;42.90
5808;DHT22;2930;42.678;23.312;2023-04-12T13:52:00;19.50;43.00
5808;DHT22;2930;42.678;23.312;2023-04-12T13:54:26;19.60;42.90
5808;DHT22;2930;42.678;23.312;2023-04-12T13:56:51;19.90;42.80
5808;DHT22;2930;42.678;23.312;2023-04-12T13:59:17;20.10;43.10
5808;DHT22;2930;42.678;23.312;2023-04-12T14:01:43;20.60;42.10
5808;DHT22;2930;42.678;23.312;2023-04-12T14:04:08;20.80;41.90
5808;DHT22;2930;42.678;23.312;2023-04-12T14:06:34;20.70;41.60
5808;DHT22;2930;42.678;23.312;2023-04-12T14:09:01;20.80;41.30
5808;DHT22;2930;42.678;23.312;2023-04-12T14:11:26;20.40;40.90
5808;DHT22;2930;42.678;23.312;2023-04-12T14:13:52;20.70;41.40
5808;DHT22;2930;42.678;23.312;2023-04-12T14:16:18;21.20;41.00
5808;DHT22;2930;42.678;23.312;2023-04-12T14:18:44;21.40;40.10
5808;DHT22;2930;42.678;23.312;2023-04-12T14:21:10;21.30;40.50
5808;DHT22;2930;42.678;23.312;2023-04-12T14:23:35;20.70;40.40
5808;DHT22;2930;42.678;23.312;2023-04-12T14:26:01;20.30;40.90
5808;DHT22;2930;42.678;23.312;2023-04-12T14:28:27;20.00;41.60
5808;DHT22;2930;42.678;23.312;2023-04-12T14:30:58;20.10;41.90
5808;DHT22;2930;42.678;23.312;2023-04-12T14:33:25;20.30;42.20
5808;DHT22;2930;42.678;23.312;2023-04-12T14:35:52;20.90;41.70
5808;DHT22;2930;42.678;23.312;2023-04-12T14:38:18;20.90;41.50
5808;DHT22;2930;42.678;23.312;2023-04-12T14:40:44;20.10;42.10
5808;DHT22;2930;42.678;23.312;2023-04-12T14:43:09;19.00;43.30
5808;DHT22;2930;42.678;23.312;2023-04-12T14:45:38;18.60;44.10
5808;DHT22;2930;42.678;23.312;2023-04-12T14:48:03;18.60;44.20
5808;DHT22;2930;42.678;23.312;2023-04-12T14:50:29;18.60;44.40
5808;DHT22;2930;42.678;23.312;2023-04-12T14:52:55;18.60;44.30
5808;DHT22;2930;42.678;23.312;2023-04-12T14:55:21;18.90;44.10
5808;DHT22;2930;42.678;23.312;2023-04-12T14:57:47;19.00;43.70
5808;DHT22;2930;42.678;23.312;2023-04-12T15:00:13;18.80;43.80
5808;DHT22;2930;42.678;23.312;2023-04-12T15:02:42;18.90;44.20
5808;DHT22;2930;42.678;23.312;2023-04-12T15:05:10;19.00;43.90
5808;DHT22;2930;42.678;23.312;2023-04-12T15:07:36;18.60;44.10
5808;DHT22;2930;42.678;23.312;2023-04-12T15:10:03;17.90;45.10
5808;DHT22;2930;42.678;23.312;2023-04-12T15:12:29;17.60;45.80
5808;DHT22;2930;42.678;23.312;2023-04-12T15:14:58;17.80;45.50
5808;DHT22;2930;42.678;23.312;2023-04-12T15:17:25;17.80;45.50
5808;DHT22;2930;42.678;23.312;2023-04-12T15:19:50;17.70;45.80
5808;DHT22;2930;42.678;23.312;2023-04-12T15:22:16;17.40;46.00
5808;DHT22;2930;42.678;23.312;2023-04-12T15:24:41;17.20;46.10
5808;DHT22;2930;42.678;23.312;2023-04-12T15:27:07;17.20;46.30
5808;DHT22;2930;42.678;23.312;2023-04-12T15:29:33;17.40;46.60
5808;DHT22;2930;42.678;23.312;2023-04-12T15:32:00;17.60;46.00
5808;DHT22;2930;42.678;23.312;2023-04-12T15:34:25;17.80;45.40
5808;DHT22;2930;42.678;23.312;2023-04-12T15:36:53;17.70;44.90
5808;DHT22;2930;42.678;23.312;2023-04-12T15:39:19;17.40;45.50
5808;DHT22;2930;42.678;23.312;2023-04-12T15:41:44;17.30;45.80
5808;DHT22;2930;42.678;23.312;2023-04-12T15:44:10;17.20;46.60
5808;DHT22;2930;42.678;23.312;2023-04-12T15:46:38;17.10;46.60
5808;DHT22;2930;42.678;23.312;2023-04-12T15:49:04;17.10;46.30
5808;DHT22;2930;42.678;23.312;2023-04-12T15:51:30;16.80;46.10
5808;DHT22;2930;42.678;23.312;2023-04-12T15:53:56;16.50;46.70
5808;DHT22;2930;42.678;23.312;2023-04-12T15:56:22;16.10;47.30
5808;DHT22;2930;42.678;23.312;2023-04-12T15:58:52;15.80;47.70
5808;DHT22;2930;42.678;23.312;2023-04-12T16:01:18;15.70;48.20
5808;DHT22;2930;42.678;23.312;2023-04-12T16:03:44;15.80;48.30
5808;DHT22;2930;42.678;23.312;2023-04-12T16:06:13;16.00;48.70
5808;DHT22;2930;42.678;23.312;2023-04-12T16:08:51;16.20;48.50
5808;DHT22;2930;42.678;23.312;2023-04-12T16:11:18;16.10;48.40
5808;DHT22;2930;42.678;23.312;2023-04-12T16:13:45;15.90;48.40
5808;DHT22;2930;42.678;23.312;2023-04-12T16:16:13;15.70;48.60